Hildegaard — C6QU3 — position and weather

sailwx.info

Track history (hours):
 
Tides and Currents Weather Stations Pressure Air Temp Water Temp Dewpoint Dewpoint Depression Visibility Wind Speed Wind Dir Waves Ship Positions

Hildegaard

Last reported at 2016-Jun-30 06:32 UTC. Time now 2016-Jun-30 06:58 UTC.
Position N 54°03' E 007°31'.

Length 248 m; draft 9.9 m.

Type: Ship (hazmat cat A). MMSI: 308574000.

Date/timePositionNaut miles runAvg speedWind from/ knotsBaromVisibWave heightAir tempDewpointWater temp
2016-Jun-30 06:32N 54°03' E 007°31'0 0.0
2016-Jun-30 05:32N 54°03' E 007°31'0 0.0
2016-Jun-30 04:31N 54°03' E 007°31'0 0.0
2016-Jun-30 03:32N 54°03' E 007°31'0 0.0
2016-Jun-30 02:32N 54°03' E 007°31'3 2.7
2016-Jun-30 01:33N 54°04' E 007°34'8 8.3
2016-Jun-30 00:33N 53°57' E 007°41'1111.2
2016-Jun-29 23:33N 53°49' E 007°55'1211.9
2016-Jun-29 22:33N 53°40' E 008°07'7 6.6
2016-Jun-29 21:33N 53°33' E 008°10'0 0.0
2016-Jun-29 20:31N 53°33' E 008°10'0 0.0
2016-Jun-29 19:31N 53°33' E 008°10'0 0.0
2016-Jun-29 18:31N 53°33' E 008°10'0 0.0
2016-Jun-29 17:31N 53°33' E 008°10'0 0.0
2016-Jun-29 16:31N 53°33' E 008°10'0 0.0
2016-Jun-29 11:07N 53°33' E 008°10'1 1.6
2016-Jun-29 10:33N 53°34' E 008°10'6 6.3
2016-Jun-29 09:33N 53°40' E 008°06'8 7.7
2016-Jun-29 08:34N 53°47' E 008°02'9 8.8
2016-Jun-29 07:33N 53°51' E 007°48'1010.0
2016-Jun-29 06:34N 53°59' E 007°37'6 6.3
2016-Jun-29 05:33N 54°03' E 007°29'0 0.1
2016-Jun-29 04:29N 54°03' E 007°29'0 0.0
2016-Jun-29 03:32N 54°03' E 007°29'0 0.0
2016-Jun-29 02:32N 54°03' E 007°29'0 0.0
2016-Jun-29 01:32N 54°03' E 007°29'0 0.2
2016-Jun-29 00:26N 54°03' E 007°29'0 0.2
2016-Jun-28 23:32N 54°03' E 007°28'0 0.0
2016-Jun-28 22:32N 54°03' E 007°28'0 0.0
2016-Jun-28 21:32N 54°03' E 007°28'0 0.0
2016-Jun-28 20:32N 54°03' E 007°28'0 0.0
2016-Jun-28 19:32N 54°03' E 007°28'0 0.0
2016-Jun-28 18:32N 54°03' E 007°28'0 0.2
2016-Jun-28 17:23N 54°03' E 007°29'0 0.0
2016-Jun-28 16:29N 54°03' E 007°29'0 0.0
2016-Jun-28 15:32N 54°03' E 007°29'0 0.0
2016-Jun-28 14:32N 54°03' E 007°29'0 0.1
2016-Jun-28 13:32N 54°03' E 007°29'0 0.0
2016-Jun-28 12:32N 54°03' E 007°29'0 0.3
2016-Jun-28 11:33N 54°03' E 007°29'9 8.7
2016-Jun-28 10:33N 54°12' E 007°25'1111.1
2016-Jun-28 09:33N 54°21' E 007°16'1110.9
2016-Jun-28 08:33N 54°31' E 007°06'1110.9
2016-Jun-28 07:33N 54°40' E 006°56'180 9.2
2016-Jun-27 12:07N 57°31' E 008°32'1010.1
2016-Jun-27 11:10N 57°37' E 008°46'610.3
2016-Jun-27 10:33N 57°41' E 008°56'63 9.9
2016-Jun-27 04:12N 57°45' E 010°54'710.9
2016-Jun-27 03:33N 57°40' E 011°03'1110.9
2016-Jun-27 02:33N 57°32' E 011°18'1010.4
2016-Jun-27 01:33N 57°24' E 011°29'1010.5
2016-Jun-27 00:33N 57°14' E 011°35'1110.6
2016-Jun-26 23:33N 57°04' E 011°42'1010.2
2016-Jun-26 22:33N 56°54' E 011°48'9 9.4
2016-Jun-26 21:33N 56°45' E 011°53'1110.9
2016-Jun-26 20:32N 56°38' E 011°37'  
2016-Jun-24 10:06N 56°31' E 011°37'1711.1
2016-Jun-24 08:33N 56°47' E 011°51'1212.0
2016-Jun-24 07:33N 56°58' E 011°44'3511.6
2016-Jun-24 04:33N 57°30' E 011°19'1111.5
2016-Jun-24 03:34N 57°37' E 011°02'1010.2
2016-Jun-24 02:34N 57°42' E 010°45'1 0.4
2016-Jun-24 01:03N 57°42' E 010°44'0 0.0
2016-Jun-24 00:33N 57°42' E 010°44'0 0.1
2016-Jun-23 23:27N 57°42' E 010°44'0 0.1
2016-Jun-23 22:30N 57°42' E 010°44'0 0.0
2016-Jun-23 21:33N 57°42' E 010°44'0 0.0
2016-Jun-23 20:27N 57°42' E 010°44'0 0.0
2016-Jun-23 19:34N 57°42' E 010°44'0 0.0
2016-Jun-23 18:30N 57°42' E 010°44'0 0.0
2016-Jun-23 17:30N 57°42' E 010°44'0 0.1
2016-Jun-23 16:33N 57°42' E 010°44'0 0.0
2016-Jun-23 15:33N 57°42' E 010°44'0 0.0
2016-Jun-23 14:24N 57°42' E 010°44'0 0.0
2016-Jun-23 13:33N 57°42' E 010°44'0 0.0
2016-Jun-23 12:33N 57°42' E 010°44'0 0.0
2016-Jun-23 11:33N 57°42' E 010°44'0 0.1
2016-Jun-23 10:27N 57°42' E 010°44'0 0.0
2016-Jun-23 09:09N 57°42' E 010°44'2 1.8
2016-Jun-23 08:17N 57°43' E 010°46'5 6.7
2016-Jun-23 07:33N 57°48' E 010°42'18 8.9
2016-Jun-23 05:33N 57°51' E 010°09'28 8.2
2016-Jun-23 02:07N 57°44' E 009°18'25 8.3
2016-Jun-22 23:08N 57°31' E 008°39'324 9.3
2016-Jun-21 12:26N 54°29' E 000°38'7 8.2
2016-Jun-21 11:33N 54°23' E 000°33'12 8.4
2016-Jun-21 10:11N 54°12' E 000°26'5 8.5
2016-Jun-21 09:33N 54°07' E 000°22'8 8.4
2016-Jun-21 08:33N 53°59' E 000°22'9 8.2
2016-Jun-21 07:28N 53°50' E 000°22'13 7.0
2016-Jun-21 05:33N 53°37' E 000°21'8 7.7
2016-Jun-21 04:33N 53°33' E 000°10'2 1.8
2016-Jun-21 03:33N 53°32' E 000°07'0 0.1
2016-Jun-21 02:33N 53°32' E 000°07'0 0.1
2016-Jun-21 01:04N 53°32' E 000°07'0 0.4
2016-Jun-21 00:31N 53°32' E 000°07'0 0.1
2016-Jun-20 23:31N 53°32' E 000°07'0 0.0
2016-Jun-20 22:16N 53°32' E 000°07'0 0.0
2016-Jun-20 21:13N 53°32' E 000°07'0 0.0
2016-Jun-20 20:31N 53°32' E 000°07'0 0.0
2016-Jun-20 19:31N 53°32' E 000°07'0 0.0
2016-Jun-20 18:31N 53°32' E 000°07'0 0.3
2016-Jun-20 17:31N 53°32' E 000°07'0 0.0
2016-Jun-20 16:31N 53°32' E 000°07'0 0.0
2016-Jun-20 15:31N 53°32' E 000°07'0 0.0
2016-Jun-20 14:31N 53°32' E 000°07'0 0.1
2016-Jun-20 13:31N 53°32' E 000°07'0 0.2
2016-Jun-20 12:31N 53°32' E 000°07'0 0.2
2016-Jun-20 11:31N 53°32' E 000°07'0 0.0
2016-Jun-20 10:31N 53°32' E 000°07'0 0.0
2016-Jun-20 09:31N 53°32' E 000°07'0 0.0
2016-Jun-20 08:31N 53°32' E 000°07'0 0.1
2016-Jun-20 07:28N 53°32' E 000°07'  
Track history (hours):
 
Tides and Currents Weather Stations Pressure Air Temp Water Temp Dewpoint Dewpoint Depression Visibility Wind Speed Wind Dir Waves Ship Positions

Hildegaard

Last reported at 2016-Jun-30 06:32 UTC. Time now 2016-Jun-30 06:58 UTC.
Position N 54°03' E 007°31'.

Length 248 m; draft 9.9 m.

Type: Ship (hazmat cat A). MMSI: 308574000.

Date/timePositionNaut miles runAvg speedWind from/ knotsBaromVisibWave heightAir tempDewpointWater temp
2016-Jun-30 06:32N 54°03' E 007°31'0 0.0
2016-Jun-30 05:32N 54°03' E 007°31'0 0.0
2016-Jun-30 04:31N 54°03' E 007°31'0 0.0
2016-Jun-30 03:32N 54°03' E 007°31'0 0.0
2016-Jun-30 02:32N 54°03' E 007°31'3 2.7
2016-Jun-30 01:33N 54°04' E 007°34'8 8.3
2016-Jun-30 00:33N 53°57' E 007°41'1111.2
2016-Jun-29 23:33N 53°49' E 007°55'1211.9
2016-Jun-29 22:33N 53°40' E 008°07'7 6.6
2016-Jun-29 21:33N 53°33' E 008°10'0 0.0
2016-Jun-29 20:31N 53°33' E 008°10'0 0.0
2016-Jun-29 19:31N 53°33' E 008°10'0 0.0
2016-Jun-29 18:31N 53°33' E 008°10'0 0.0
2016-Jun-29 17:31N 53°33' E 008°10'0 0.0
2016-Jun-29 16:31N 53°33' E 008°10'0 0.0
2016-Jun-29 11:07N 53°33' E 008°10'1 1.6
2016-Jun-29 10:33N 53°34' E 008°10'6 6.3
2016-Jun-29 09:33N 53°40' E 008°06'8 7.7
2016-Jun-29 08:34N 53°47' E 008°02'9 8.8
2016-Jun-29 07:33N 53°51' E 007°48'1010.0
2016-Jun-29 06:34N 53°59' E 007°37'6 6.3
2016-Jun-29 05:33N 54°03' E 007°29'0 0.1
2016-Jun-29 04:29N 54°03' E 007°29'0 0.0
2016-Jun-29 03:32N 54°03' E 007°29'0 0.0
2016-Jun-29 02:32N 54°03' E 007°29'0 0.0
2016-Jun-29 01:32N 54°03' E 007°29'0 0.2
2016-Jun-29 00:26N 54°03' E 007°29'0 0.2
2016-Jun-28 23:32N 54°03' E 007°28'0 0.0
2016-Jun-28 22:32N 54°03' E 007°28'0 0.0
2016-Jun-28 21:32N 54°03' E 007°28'0 0.0
2016-Jun-28 20:32N 54°03' E 007°28'0 0.0
2016-Jun-28 19:32N 54°03' E 007°28'0 0.0
2016-Jun-28 18:32N 54°03' E 007°28'0 0.2
2016-Jun-28 17:23N 54°03' E 007°29'0 0.0
2016-Jun-28 16:29N 54°03' E 007°29'0 0.0
2016-Jun-28 15:32N 54°03' E 007°29'0 0.0
2016-Jun-28 14:32N 54°03' E 007°29'0 0.1
2016-Jun-28 13:32N 54°03' E 007°29'0 0.0
2016-Jun-28 12:32N 54°03' E 007°29'0 0.3
2016-Jun-28 11:33N 54°03' E 007°29'9 8.7
2016-Jun-28 10:33N 54°12' E 007°25'1111.1
2016-Jun-28 09:33N 54°21' E 007°16'1110.9
2016-Jun-28 08:33N 54°31' E 007°06'1110.9
2016-Jun-28 07:33N 54°40' E 006°56'180 9.2
2016-Jun-27 12:07N 57°31' E 008°32'1010.1
2016-Jun-27 11:10N 57°37' E 008°46'610.3
2016-Jun-27 10:33N 57°41' E 008°56'63 9.9
2016-Jun-27 04:12N 57°45' E 010°54'710.9
2016-Jun-27 03:33N 57°40' E 011°03'1110.9
2016-Jun-27 02:33N 57°32' E 011°18'1010.4
2016-Jun-27 01:33N 57°24' E 011°29'1010.5
2016-Jun-27 00:33N 57°14' E 011°35'1110.6
2016-Jun-26 23:33N 57°04' E 011°42'1010.2
2016-Jun-26 22:33N 56°54' E 011°48'9 9.4
2016-Jun-26 21:33N 56°45' E 011°53'1110.9
2016-Jun-26 20:32N 56°38' E 011°37'  
2016-Jun-24 10:06N 56°31' E 011°37'1711.1
2016-Jun-24 08:33N 56°47' E 011°51'1212.0
2016-Jun-24 07:33N 56°58' E 011°44'3511.6
2016-Jun-24 04:33N 57°30' E 011°19'1111.5
2016-Jun-24 03:34N 57°37' E 011°02'1010.2
2016-Jun-24 02:34N 57°42' E 010°45'1 0.4
2016-Jun-24 01:03N 57°42' E 010°44'0 0.0
2016-Jun-24 00:33N 57°42' E 010°44'0 0.1
2016-Jun-23 23:27N 57°42' E 010°44'0 0.1
2016-Jun-23 22:30N 57°42' E 010°44'0 0.0
2016-Jun-23 21:33N 57°42' E 010°44'0 0.0
2016-Jun-23 20:27N 57°42' E 010°44'0 0.0
2016-Jun-23 19:34N 57°42' E 010°44'0 0.0
2016-Jun-23 18:30N 57°42' E 010°44'0 0.0
2016-Jun-23 17:30N 57°42' E 010°44'0 0.1
2016-Jun-23 16:33N 57°42' E 010°44'0 0.0
2016-Jun-23 15:33N 57°42' E 010°44'0 0.0
2016-Jun-23 14:24N 57°42' E 010°44'0 0.0
2016-Jun-23 13:33N 57°42' E 010°44'0 0.0
2016-Jun-23 12:33N 57°42' E 010°44'0 0.0
2016-Jun-23 11:33N 57°42' E 010°44'0 0.1
2016-Jun-23 10:27N 57°42' E 010°44'0 0.0
2016-Jun-23 09:09N 57°42' E 010°44'2 1.8
2016-Jun-23 08:17N 57°43' E 010°46'5 6.7
2016-Jun-23 07:33N 57°48' E 010°42'18 8.9
2016-Jun-23 05:33N 57°51' E 010°09'28 8.2
2016-Jun-23 02:07N 57°44' E 009°18'25 8.3
2016-Jun-22 23:08N 57°31' E 008°39'324 9.3
2016-Jun-21 12:26N 54°29' E 000°38'7 8.2
2016-Jun-21 11:33N 54°23' E 000°33'12 8.4
2016-Jun-21 10:11N 54°12' E 000°26'5 8.5
2016-Jun-21 09:33N 54°07' E 000°22'8 8.4
2016-Jun-21 08:33N 53°59' E 000°22'9 8.2
2016-Jun-21 07:28N 53°50' E 000°22'13 7.0
2016-Jun-21 05:33N 53°37' E 000°21'8 7.7
2016-Jun-21 04:33N 53°33' E 000°10'2 1.8
2016-Jun-21 03:33N 53°32' E 000°07'0 0.1
2016-Jun-21 02:33N 53°32' E 000°07'0 0.1
2016-Jun-21 01:04N 53°32' E 000°07'0 0.4
2016-Jun-21 00:31N 53°32' E 000°07'0 0.1
2016-Jun-20 23:31N 53°32' E 000°07'0 0.0
2016-Jun-20 22:16N 53°32' E 000°07'0 0.0
2016-Jun-20 21:13N 53°32' E 000°07'0 0.0
2016-Jun-20 20:31N 53°32' E 000°07'0 0.0
2016-Jun-20 19:31N 53°32' E 000°07'0 0.0
2016-Jun-20 18:31N 53°32' E 000°07'0 0.3
2016-Jun-20 17:31N 53°32' E 000°07'0 0.0
2016-Jun-20 16:31N 53°32' E 000°07'0 0.0
2016-Jun-20 15:31N 53°32' E 000°07'0 0.0
2016-Jun-20 14:31N 53°32' E 000°07'0 0.1
2016-Jun-20 13:31N 53°32' E 000°07'0 0.2
2016-Jun-20 12:31N 53°32' E 000°07'0 0.2
2016-Jun-20 11:31N 53°32' E 000°07'0 0.0
2016-Jun-20 10:31N 53°32' E 000°07'0 0.0
2016-Jun-20 09:31N 53°32' E 000°07'0 0.0
2016-Jun-20 08:31N 53°32' E 000°07'0 0.1
2016-Jun-20 07:28N 53°32' E 000°07'  

Dump ship's entire track history